Time;durP1;ratioP1;P1;durP2;ratioP2;P2;SDS_P1;SDS_P2;PMS_P1;PMS_P2;Temp;Humidity;BMP_temperature;BMP_pressure;BME280_temperature;BME280_humidity;BME280_pressure;Samples;Min_cycle;Max_cycle;Signal;HPM_P1;HPM_P2
2021/11/27 00:01:50;;;;;;;;;;;;;;;;;;5061185;28;19924;-71
2021/11/27 00:04:17;;;;;;;;;;;;;;;;;;5065633;28;20372;-69
2021/11/27 00:06:44;;;;;;;;;;;;;;;;;;5056987;28;19925;-67
2021/11/27 00:09:11;;;;;;;;;;;;;;;;;;5060134;28;19925;-69
2021/11/27 00:11:38;;;;;;;;;;;;;;;;;;5067193;28;20039;-68
2021/11/27 00:14:06;;;;;;;;;;;;;;;;;;5057874;28;20280;-68
2021/11/27 00:16:33;;;;;;;;;;;;;;;;;;5066862;28;19959;-67
2021/11/27 00:19:00;;;;;;;;;;;;;;;;;;5057680;28;19939;-68
2021/11/27 00:21:27;;;;;;;;;;;;;;;;;;5064204;28;19925;-69
2021/11/27 00:23:54;;;;;;;;;;;;;;;;;;5064454;28;19924;-69
2021/11/27 00:26:21;;;;;;;;;;;;;;;;;;5064932;28;19924;-67
2021/11/27 00:28:48;;;;;;;;;;;;;;;;;;5059558;28;19979;-68
2021/11/27 00:31:15;;;;;;;;;;;;;;;;;;5056802;28;19931;-68
2021/11/27 00:33:42;;;;;;;;;;;;;;;;;;5060114;28;20289;-67
2021/11/27 00:36:09;;;;;;;;;;;;;;;;;;5057092;28;19925;-67
2021/11/27 00:38:36;;;;;;;;;;;;;;;;;;5065372;28;19931;-68
2021/11/27 00:41:03;;;;;;;;;;;;;;;;;;5067844;28;19928;-69
2021/11/27 00:43:30;;;;;;;;;;;;;;;;;;5068308;28;19924;-69
2021/11/27 00:45:57;;;;;;;;;;;;;;;;;;5068365;28;19928;-68
2021/11/27 00:48:25;;;;;;;;;;;;;;;;;;5061477;28;19925;-68
2021/11/27 00:50:52;;;;;;;;;;;;;;;;;;5067148;28;19924;-68
2021/11/27 00:53:19;;;;;;;;;;;;;;;;;;5061046;28;19932;-68
2021/11/27 00:55:46;;;;;;;;;;;;;;;;;;5062799;28;20020;-68
2021/11/27 00:58:13;;;;;;;;;;;;;;;;;;5066538;28;19928;-67
2021/11/27 01:00:40;;;;;;;;;;;;;;;;;;5070320;28;19928;-67
2021/11/27 01:03:07;;;;;;;;;;;;;;;;;;5068413;28;20315;-67
2021/11/27 01:05:34;;;;;;;;;;;;;;;;;;5064687;28;19924;-67
2021/11/27 01:08:01;;;;;;;;;;;;;;;;;;5065989;28;19931;-67
2021/11/27 01:10:28;;;;;;;;;;;;;;;;;;5062166;28;19925;-67
2021/11/27 01:12:55;;;;;;;;;;;;;;;;;;5063812;28;19931;-68
2021/11/27 01:15:22;;;;;;;;;;;;;;;;;;5059005;28;19931;-68
2021/11/27 01:17:49;;;;;;;;;;;;;;;;;;5062690;28;19925;-68
2021/11/27 01:20:16;;;;;;;;;;;;;;;;;;5056766;28;19939;-68
2021/11/27 01:22:43;;;;;;;;;;;;;;;;;;5061015;28;20423;-68
2021/11/27 01:25:10;;;;;;;;;;;;;;;;;;5062456;28;20011;-67
2021/11/27 01:27:37;;;;;;;;;;;;;;;;;;5055963;28;19931;-67
2021/11/27 01:30:04;;;;;;;;;;;;;;;;;;5058449;28;19934;-66
2021/11/27 01:32:31;;;;;;;;;;;;;;;;;;5062112;28;19929;-67
2021/11/27 01:34:58;;;;;;;;;;;;;;;;;;5058366;28;19931;-68
2021/11/27 01:37:25;;;;;;;;;;;;;;;;;;5063367;28;19932;-68
2021/11/27 01:39:52;;;;;;;;;;;;;;;;;;5056372;28;19925;-67
2021/11/27 01:42:19;;;;;;;;;;;;;;;;;;5061869;28;20033;-66
2021/11/27 01:44:46;;;;;;;;;;;;;;;;;;5069475;22;19934;-65
2021/11/27 01:47:13;;;;;;;;;;;;;;;;;;5067587;28;19929;-64
2021/11/27 01:49:40;;;;;;;;;;;;;;;;;;5070324;28;19931;-64
2021/11/27 01:52:07;;;;;;;;;;;;;;;;;;5066684;28;19932;-64
2021/11/27 01:54:34;;;;;;;;;;;;;;;;;;5067387;28;20394;-65
2021/11/27 01:57:01;;;;;;;;;;;;;;;;;;5065916;28;19952;-65
2021/11/27 01:59:28;;;;;;;;;;;;;;;;;;5066951;28;19932;-65
2021/11/27 02:01:55;;;;;;;;;;;;;;;;;;5068558;28;19931;-65
2021/11/27 02:04:22;;;;;;;;;;;;;;;;;;5070605;28;20393;-65
2021/11/27 02:06:49;;;;;;;;;;;;;;;;;;5074201;28;19924;-64
2021/11/27 02:09:16;;;;;;;;;;;;;;;;;;5069275;28;19925;-65
2021/11/27 02:11:43;;;;;;;;;;;;;;;;;;5070392;28;19946;-65
2021/11/27 02:14:10;;;;;;;;;;;;;;;;;;5072094;28;19924;-65
2021/11/27 02:16:37;;;;;;;;;;;;;;;;;;5066584;28;19929;-65
2021/11/27 02:19:04;;;;;;;;;;;;;;;;;;5066335;28;20410;-65
2021/11/27 02:21:31;;;;;;;;;;;;;;;;;;5071826;28;20257;-65
2021/11/27 02:23:57;;;;;;;;;;;;;;;;;;5066786;28;19935;-65
2021/11/27 02:26:24;;;;;;;;;;;;;;;;;;5069819;28;19929;-65
2021/11/27 02:28:51;;;;;;;;;;;;;;;;;;5069194;28;19924;-65
2021/11/27 02:31:18;;;;;;;;;;;;;;;;;;5070002;28;20295;-64
2021/11/27 02:33:45;;;;;;;;;;;;;;;;;;5070177;28;19925;-65
2021/11/27 02:36:12;;;;;;;;;;;;;;;;;;5069157;28;19931;-65
2021/11/27 02:38:39;;;;;;;;;;;;;;;;;;5073646;28;19924;-64
2021/11/27 02:41:06;;;;;;;;;;;;;;;;;;5063467;28;20308;-65
2021/11/27 02:43:33;;;;;;;;;;;;;;;;;;5070273;28;19924;-65
2021/11/27 02:46:00;;;;;;;;;;;;;;;;;;5073374;28;19932;-65
2021/11/27 02:48:27;;;;;;;;;;;;;;;;;;5072609;28;20384;-64
2021/11/27 02:50:54;;;;;;;;;;;;;;;;;;5069999;28;19946;-65
2021/11/27 02:53:21;;;;;;;;;;;;;;;;;;5066926;28;19956;-65
2021/11/27 02:55:48;;;;;;;;;;;;;;;;;;5070763;28;19924;-65
2021/11/27 02:58:15;;;;;;;;;;;;;;;;;;5072199;28;20388;-65
2021/11/27 03:00:42;;;;;;;;;;;;;;;;;;5069874;28;20015;-64
2021/11/27 03:03:09;;;;;;;;;;;;;;;;;;5071542;28;19931;-64
2021/11/27 03:05:37;;;;;;;;;;;;;;;;;;5072589;28;19924;-65
2021/11/27 03:08:04;;;;;;;;;;;;;;;;;;5066723;28;20436;-65
2021/11/27 03:10:31;;;;;;;;;;;;;;;;;;5066141;28;19951;-65
2021/11/27 03:12:58;;;;;;;;;;;;;;;;;;5065232;28;19932;-64
2021/11/27 03:15:25;;;;;;;;;;;;;;;;;;5071043;28;19931;-65
2021/11/27 03:17:52;;;;;;;;;;;;;;;;;;5063343;28;19932;-66
2021/11/27 03:20:19;;;;;;;;;;;;;;;;;;5072466;28;19939;-65
2021/11/27 03:22:46;;;;;;;;;;;;;;;;;;5065492;28;19925;-65
2021/11/27 03:25:12;;;;;;;;;;;;;;;;;;5069757;28;20369;-65
2021/11/27 03:27:39;;;;;;;;;;;;;;;;;;5064782;28;19964;-65
2021/11/27 03:30:06;;;;;;;;;;;;;;;;;;5067123;28;19924;-65
2021/11/27 03:32:33;;;;;;;;;;;;;;;;;;5066032;28;19924;-65
2021/11/27 03:35:00;;;;;;;;;;;;;;;;;;5072349;28;19930;-64
2021/11/27 03:37:27;;;;;;;;;;;;;;;;;;5072086;28;19928;-65
2021/11/27 03:39:54;;;;;;;;;;;;;;;;;;5067848;28;20299;-65
2021/11/27 03:42:21;;;;;;;;;;;;;;;;;;5071023;28;19928;-65
2021/11/27 03:44:48;;;;;;;;;;;;;;;;;;5069360;28;19924;-65
2021/11/27 03:47:15;;;;;;;;;;;;;;;;;;5071426;28;19932;-65
2021/11/27 03:49:42;;;;;;;;;;;;;;;;;;5065985;28;19931;-65
2021/11/27 03:52:09;;;;;;;;;;;;;;;;;;5062299;28;19935;-65
2021/11/27 03:54:36;;;;;;;;;;;;;;;;;;5068612;28;20399;-66
2021/11/27 03:57:03;;;;;;;;;;;;;;;;;;5068141;28;19931;-65
2021/11/27 03:59:30;;;;;;;;;;;;;;;;;;5069991;28;19925;-65
2021/11/27 04:01:57;;;;;;;;;;;;;;;;;;5065183;28;20078;-64
2021/11/27 04:04:24;;;;;;;;;;;;;;;;;;5070458;28;20273;-64
2021/11/27 04:06:51;;;;;;;;;;;;;;;;;;5070788;28;19979;-65
2021/11/27 04:09:18;;;;;;;;;;;;;;;;;;5062552;28;19928;-65
2021/11/27 04:11:45;;;;;;;;;;;;;;;;;;5061604;28;20399;-65
2021/11/27 04:14:12;;;;;;;;;;;;;;;;;;5069834;28;20381;-64
2021/11/27 04:16:39;;;;;;;;;;;;;;;;;;5068395;28;19924;-65
2021/11/27 04:19:06;;;;;;;;;;;;;;;;;;5063483;28;20320;-64
2021/11/27 04:21:33;;;;;;;;;;;;;;;;;;5067473;28;19928;-64
2021/11/27 04:24:00;;;;;;;;;;;;;;;;;;5066215;28;20464;-64
2021/11/27 04:26:27;;;;;;;;;;;;;;;;;;5068585;28;19935;-64
2021/11/27 04:28:55;;;;;;;;;;;;;;;;;;5070125;28;19924;-64
2021/11/27 04:31:22;;;;;;;;;;;;;;;;;;5070601;28;19924;-64
2021/11/27 04:33:49;;;;;;;;;;;;;;;;;;5066087;28;19931;-65
2021/11/27 04:36:16;;;;;;;;;;;;;;;;;;5073958;28;19935;-64
2021/11/27 04:38:43;;;;;;;;;;;;;;;;;;5068786;28;19925;-65
2021/11/27 04:41:10;;;;;;;;;;;;;;;;;;5066032;28;20307;-64
2021/11/27 04:43:37;;;;;;;;;;;;;;;;;;5067418;28;19947;-64
2021/11/27 04:46:04;;;;;;;;;;;;;;;;;;5065572;28;20011;-64
2021/11/27 04:48:31;;;;;;;;;;;;;;;;;;5069025;28;19924;-64
2021/11/27 04:50:58;;;;;;;;;;;;;;;;;;5062303;28;20368;-64
2021/11/27 04:53:26;;;;;;;;;;;;;;;;;;5065618;28;19929;-64
2021/11/27 04:55:53;;;;;;;;;;;;;;;;;;5069337;28;19924;-65
2021/11/27 04:58:20;;;;;;;;;;;;;;;;;;5069345;28;19928;-65
2021/11/27 05:00:46;;;;;;;;;;;;;;;;;;5066531;28;19924;-65
2021/11/27 05:03:13;;;;;;;;;;;;;;;;;;5068609;28;19931;-66
2021/11/27 05:05:40;;;;;;;;;;;;;;;;;;5066015;28;19939;-65
2021/11/27 05:08:07;;;;;;;;;;;;;;;;;;5070507;28;19928;-64
2021/11/27 05:10:34;;;;;;;;;;;;;;;;;;5068341;28;19932;-65
2021/11/27 05:13:01;;;;;;;;;;;;;;;;;;5067990;28;19924;-65
2021/11/27 05:15:28;;;;;;;;;;;;;;;;;;5065689;28;19928;-65
2021/11/27 05:17:55;;;;;;;;;;;;;;;;;;5069249;28;19924;-65
2021/11/27 05:20:22;;;;;;;;;;;;;;;;;;5069342;28;19931;-66
2021/11/27 05:22:49;;;;;;;;;;;;;;;;;;5065052;28;20308;-65
2021/11/27 05:25:16;;;;;;;;;;;;;;;;;;5068254;28;19924;-65
2021/11/27 05:27:43;;;;;;;;;;;;;;;;;;5064659;28;19931;-65
2021/11/27 05:30:10;;;;;;;;;;;;;;;;;;5063390;28;19924;-64
2021/11/27 05:32:52;;;;;;;;;;;;;;;;;;5057973;28;19925;-65
2021/11/27 05:35:19;;;;;;;;;;;;;;;;;;5066595;28;19935;-65
2021/11/27 05:37:46;;;;;;;;;;;;;;;;;;5067764;28;20296;-65
2021/11/27 05:40:13;;;;;;;;;;;;;;;;;;5066112;28;19924;-65
2021/11/27 05:42:42;;;;;;;;;;;;;;;;;;5069428;28;19972;-65
2021/11/27 05:45:09;;;;;;;;;;;;;;;;;;5069054;28;19964;-64
2021/11/27 05:47:36;;;;;;;;;;;;;;;;;;5072363;28;20372;-65
2021/11/27 05:50:03;;;;;;;;;;;;;;;;;;5063575;28;19931;-65
2021/11/27 05:52:30;;;;;;;;;;;;;;;;;;5072062;28;19924;-64
2021/11/27 05:54:57;;;;;;;;;;;;;;;;;;5072130;28;19940;-65
2021/11/27 05:57:24;;;;;;;;;;;;;;;;;;5066187;28;19925;-65
2021/11/27 05:59:51;;;;;;;;;;;;;;;;;;5060267;28;20275;-64
2021/11/27 06:02:18;;;;;;;;;;;;;;;;;;5070801;28;19945;-65
2021/11/27 06:04:45;;;;;;;;;;;;;;;;;;5073154;28;19932;-65
2021/11/27 06:07:12;;;;;;;;;;;;;;;;;;5073442;28;19948;-64
2021/11/27 06:09:39;;;;;;;;;;;;;;;;;;5070981;28;19935;-64
2021/11/27 06:12:06;;;;;;;;;;;;;;;;;;5068372;28;19933;-64
2021/11/27 06:14:34;;;;;;;;;;;;;;;;;;5071481;28;19925;-65
2021/11/27 06:17:01;;;;;;;;;;;;;;;;;;5070155;28;20299;-64
2021/11/27 06:19:27;;;;;;;;;;;;;;;;;;5072472;28;19935;-65
2021/11/27 06:21:54;;;;;;;;;;;;;;;;;;5070296;28;19925;-65
2021/11/27 06:24:21;;;;;;;;;;;;;;;;;;5064044;28;19924;-65
2021/11/27 06:26:48;;;;;;;;;;;;;;;;;;5067910;28;19939;-65
2021/11/27 06:29:15;;;;;;;;;;;;;;;;;;5073663;28;20316;-64
2021/11/27 06:31:42;;;;;;;;;;;;;;;;;;5075221;28;19967;-65
2021/11/27 06:34:09;;;;;;;;;;;;;;;;;;5072893;28;19931;-65
2021/11/27 06:36:36;;;;;;;;;;;;;;;;;;5072632;28;20328;-65
2021/11/27 06:39:03;;;;;;;;;;;;;;;;;;5068418;28;19928;-65
2021/11/27 06:41:30;;;;;;;;;;;;;;;;;;5073170;28;19936;-65
2021/11/27 06:43:57;;;;;;;;;;;;;;;;;;5071481;28;19932;-65
2021/11/27 06:46:24;;;;;;;;;;;;;;;;;;5072153;28;20365;-65
2021/11/27 06:48:51;;;;;;;;;;;;;;;;;;5073659;28;19925;-65
2021/11/27 06:51:18;;;;;;;;;;;;;;;;;;5071249;28;19928;-65
2021/11/27 06:53:45;;;;;;;;;;;;;;;;;;5072688;28;20336;-65
2021/11/27 06:56:12;;;;;;;;;;;;;;;;;;5060255;28;20305;-64
2021/11/27 06:58:39;;;;;;;;;;;;;;;;;;5070328;28;19928;-65
2021/11/27 07:01:07;;;;;;;;;;;;;;;;;;5070851;28;20011;-65
2021/11/27 07:03:34;;;;;;;;;;;;;;;;;;5068477;28;20015;-65
2021/11/27 07:06:03;;;;;;;;;;;;;;;;;;5070922;28;19932;-65
2021/11/27 07:08:30;;;;;;;;;;;;;;;;;;5072819;28;19924;-65
2021/11/27 07:10:57;;;;;;;;;;;;;;;;;;5070146;28;20300;-65
2021/11/27 07:13:24;;;;;;;;;;;;;;;;;;5067438;28;19925;-65
2021/11/27 07:15:51;;;;;;;;;;;;;;;;;;5071350;28;19925;-65
2021/11/27 07:18:18;;;;;;;;;;;;;;;;;;5066417;28;19940;-65
2021/11/27 07:20:45;;;;;;;;;;;;;;;;;;5068796;28;19931;-65
2021/11/27 07:23:12;;;;;;;;;;;;;;;;;;5069685;28;19925;-65
2021/11/27 07:25:39;;;;;;;;;;;;;;;;;;5069307;28;19932;-64
2021/11/27 07:28:06;;;;;;;;;;;;;;;;;;5069944;28;19947;-65
2021/11/27 07:30:33;;;;;;;;;;;;;;;;;;5068309;28;19925;-65
2021/11/27 07:33:00;;;;;;;;;;;;;;;;;;5070339;28;19932;-65
2021/11/27 07:35:27;;;;;;;;;;;;;;;;;;5067810;28;20288;-65
2021/11/27 07:37:54;;;;;;;;;;;;;;;;;;5069528;28;19936;-65
2021/11/27 07:40:20;;;;;;;;;;;;;;;;;;5067663;28;19976;-65
2021/11/27 07:42:48;;;;;;;;;;;;;;;;;;5069651;28;19932;-65
2021/11/27 07:45:16;;;;;;;;;;;;;;;;;;5088921;22;19924;-66
2021/11/27 07:47:43;;;;;;;;;;;;;;;;;;5083428;28;19932;-66
2021/11/27 07:50:10;;;;;;;;;;;;;;;;;;5088458;28;19924;-65
2021/11/27 07:52:37;;;;;;;;;;;;;;;;;;5085578;28;19930;-66
2021/11/27 07:55:04;;;;;;;;;;;;;;;;;;5083395;28;19924;-66
2021/11/27 07:57:30;;;;;;;;;;;;;;;;;;5088871;28;19928;-67
2021/11/27 07:59:57;;;;;;;;;;;;;;;;;;5086919;28;19934;-67
2021/11/27 08:02:24;;;;;;;;;;;;;;;;;;5087045;28;19940;-65
2021/11/27 08:04:51;;;;;;;;;;;;;;;;;;5082827;28;20338;-65
2021/11/27 08:07:18;;;;;;;;;;;;;;;;;;5091576;28;19934;-65
2021/11/27 08:09:45;;;;;;;;;;;;;;;;;;5085417;28;19930;-66
2021/11/27 08:12:12;;;;;;;;;;;;;;;;;;5081783;28;19928;-66
2021/11/27 08:14:41;;;;;;;;;;;;;;;;;;5091511;28;19928;-67
2021/11/27 08:17:08;;;;;;;;;;;;;;;;;;5085880;28;19928;-66
2021/11/27 08:19:35;;;;;;;;;;;;;;;;;;5084807;28;19930;-67
2021/11/27 08:22:02;;;;;;;;;;;;;;;;;;5084814;28;19928;-66
2021/11/27 08:24:28;;;;;;;;;;;;;;;;;;5090892;28;19924;-67
2021/11/27 08:26:55;;;;;;;;;;;;;;;;;;5089585;28;20311;-67
2021/11/27 08:29:22;;;;;;;;;;;;;;;;;;5086849;28;19924;-66
2021/11/27 08:31:49;;;;;;;;;;;;;;;;;;5080528;28;19924;-66
2021/11/27 08:34:16;;;;;;;;;;;;;;;;;;5083215;28;19935;-66
2021/11/27 08:36:43;;;;;;;;;;;;;;;;;;5078733;28;19931;-66
2021/11/27 08:39:10;;;;;;;;;;;;;;;;;;5081239;28;20019;-67
2021/11/27 08:41:37;;;;;;;;;;;;;;;;;;5084021;28;19932;-67
2021/11/27 08:44:04;;;;;;;;;;;;;;;;;;5084217;28;19924;-67
2021/11/27 08:46:31;;;;;;;;;;;;;;;;;;5084416;28;19928;-67
2021/11/27 08:48:58;;;;;;;;;;;;;;;;;;5083346;28;19946;-67
2021/11/27 08:51:25;;;;;;;;;;;;;;;;;;5081180;28;19924;-67
2021/11/27 08:53:52;;;;;;;;;;;;;;;;;;5082277;28;19931;-67
2021/11/27 08:56:19;;;;;;;;;;;;;;;;;;5080552;28;19928;-68
2021/11/27 08:58:46;;;;;;;;;;;;;;;;;;5085667;28;20118;-67
2021/11/27 09:01:13;;;;;;;;;;;;;;;;;;5083111;28;19924;-67
2021/11/27 09:03:40;;;;;;;;;;;;;;;;;;5080915;28;19924;-68
2021/11/27 09:06:07;;;;;;;;;;;;;;;;;;5080520;28;19928;-67
2021/11/27 09:08:34;;;;;;;;;;;;;;;;;;5073686;28;20303;-68
2021/11/27 09:11:01;;;;;;;;;;;;;;;;;;5090164;28;19928;-66
2021/11/27 09:13:28;;;;;;;;;;;;;;;;;;5075532;28;19937;-67
2021/11/27 09:15:55;;;;;;;;;;;;;;;;;;5078632;28;20303;-66
2021/11/27 09:18:21;;;;;;;;;;;;;;;;;;5088399;28;19924;-65
2021/11/27 09:20:48;;;;;;;;;;;;;;;;;;5089236;28;20308;-65
2021/11/27 09:23:15;;;;;;;;;;;;;;;;;;5080772;28;19924;-66
2021/11/27 09:25:42;;;;;;;;;;;;;;;;;;5078806;28;19924;-66
2021/11/27 09:28:09;;;;;;;;;;;;;;;;;;5080600;28;19928;-67
2021/11/27 09:30:36;;;;;;;;;;;;;;;;;;5088788;28;19924;-66
2021/11/27 09:33:03;;;;;;;;;;;;;;;;;;5085080;28;20022;-66
2021/11/27 09:35:30;;;;;;;;;;;;;;;;;;5083053;28;19924;-67
2021/11/27 09:37:59;;;;;;;;;;;;;;;;;;5089551;28;19955;-68
2021/11/27 09:40:26;;;;;;;;;;;;;;;;;;5086621;28;19982;-67
2021/11/27 09:42:53;;;;;;;;;;;;;;;;;;5086902;28;19931;-67
2021/11/27 09:45:21;;;;;;;;;;;;;;;;;;5086928;28;19924;-67
2021/11/27 09:47:47;;;;;;;;;;;;;;;;;;5084036;28;20510;-67
2021/11/27 09:50:14;;;;;;;;;;;;;;;;;;5082526;28;20442;-66
2021/11/27 09:52:44;;;;;;;;;;;;;;;;;;5086857;28;20452;-64
2021/11/27 09:55:11;;;;;;;;;;;;;;;;;;5083988;28;19928;-65
2021/11/27 09:57:37;;;;;;;;;;;;;;;;;;5082685;28;20003;-64
2021/11/27 10:00:04;;;;;;;;;;;;;;;;;;5083088;28;19928;-66
2021/11/27 10:02:31;;;;;;;;;;;;;;;;;;5074768;28;20004;-65
2021/11/27 10:04:58;;;;;;;;;;;;;;;;;;5074482;28;20491;-67
2021/11/27 10:07:25;;;;;;;;;;;;;;;;;;5073596;28;19934;-67
2021/11/27 10:09:53;;;;;;;;;;;;;;;;;;5079697;28;20015;-65
2021/11/27 10:12:20;;;;;;;;;;;;;;;;;;5078402;28;20392;-67
2021/11/27 10:14:47;;;;;;;;;;;;;;;;;;5075739;28;19928;-63
2021/11/27 10:17:14;;;;;;;;;;;;;;;;;;5081282;28;19947;-65
2021/11/27 10:19:41;;;;;;;;;;;;;;;;;;5081115;28;19924;-68
2021/11/27 10:22:08;;;;;;;;;;;;;;;;;;5085722;28;19924;-67
2021/11/27 10:24:34;;;;;;;;;;;;;;;;;;5090615;28;20287;-67
2021/11/27 10:27:01;;;;;;;;;;;;;;;;;;5087274;28;20557;-67
2021/11/27 10:29:29;;;;;;;;;;;;;;;;;;5089990;28;19923;-65
2021/11/27 10:31:56;;;;;;;;;;;;;;;;;;5085135;28;20428;-66
2021/11/27 10:34:23;;;;;;;;;;;;;;;;;;5082551;28;20364;-65
2021/11/27 10:36:50;;;;;;;;;;;;;;;;;;5083534;28;19931;-67
2021/11/27 10:39:17;;;;;;;;;;;;;;;;;;5081732;28;19928;-68
2021/11/27 10:41:44;;;;;;;;;;;;;;;;;;5082057;28;19930;-68
2021/11/27 10:44:11;;;;;;;;;;;;;;;;;;5082977;28;20518;-67
2021/11/27 10:46:38;;;;;;;;;;;;;;;;;;5079775;28;20213;-67
2021/11/27 10:49:04;;;;;;;;;;;;;;;;;;5079936;28;19924;-67
2021/11/27 10:51:31;;;;;;;;;;;;;;;;;;5083113;28;19933;-67
2021/11/27 10:53:59;;;;;;;;;;;;;;;;;;5084417;28;19924;-67
2021/11/27 10:56:25;;;;;;;;;;;;;;;;;;5085789;28;19939;-67
2021/11/27 10:58:52;;;;;;;;;;;;;;;;;;5082939;28;20394;-67
2021/11/27 11:01:19;;;;;;;;;;;;;;;;;;5080094;28;19934;-65
2021/11/27 11:03:47;;;;;;;;;;;;;;;;;;5085258;28;19948;-67
2021/11/27 11:06:14;;;;;;;;;;;;;;;;;;5089970;28;19928;-68
2021/11/27 11:08:41;;;;;;;;;;;;;;;;;;5087571;28;19931;-66
2021/11/27 11:11:08;;;;;;;;;;;;;;;;;;5082027;28;19959;-66
2021/11/27 11:13:35;;;;;;;;;;;;;;;;;;5087579;28;19935;-66
2021/11/27 11:16:02;;;;;;;;;;;;;;;;;;5084521;28;19931;-66
2021/11/27 11:18:29;;;;;;;;;;;;;;;;;;5084971;28;19924;-66
2021/11/27 11:20:56;;;;;;;;;;;;;;;;;;5083103;28;19964;-67
2021/11/27 11:23:23;;;;;;;;;;;;;;;;;;5077740;28;19936;-66
2021/11/27 11:25:50;;;;;;;;;;;;;;;;;;5084061;28;19932;-66
2021/11/27 11:28:18;;;;;;;;;;;;;;;;;;5086580;28;19924;-67
2021/11/27 11:30:45;;;;;;;;;;;;;;;;;;5083998;28;19924;-66
2021/11/27 11:33:12;;;;;;;;;;;;;;;;;;5082289;28;19928;-66
2021/11/27 11:35:39;;;;;;;;;;;;;;;;;;5085605;28;19931;-67
2021/11/27 11:38:06;;;;;;;;;;;;;;;;;;5083274;28;19924;-67
2021/11/27 11:40:33;;;;;;;;;;;;;;;;;;5084463;28;20007;-68
2021/11/27 11:43:00;;;;;;;;;;;;;;;;;;5082935;28;19932;-66
2021/11/27 11:45:27;;;;;;;;;;;;;;;;;;5080595;28;20297;-66
2021/11/27 11:47:54;;;;;;;;;;;;;;;;;;5083987;28;19947;-67
2021/11/27 11:50:21;;;;;;;;;;;;;;;;;;5082027;28;19935;-66
2021/11/27 11:52:50;;;;;;;;;;;;;;;;;;5086720;28;19924;-67
2021/11/27 11:55:17;;;;;;;;;;;;;;;;;;5086590;28;19978;-66
2021/11/27 11:57:44;;;;;;;;;;;;;;;;;;5086424;28;20014;-66
2021/11/27 12:00:11;;;;;;;;;;;;;;;;;;5081427;28;19928;-66
2021/11/27 12:02:38;;;;;;;;;;;;;;;;;;5079754;28;19924;-66
2021/11/27 12:05:05;;;;;;;;;;;;;;;;;;5081073;28;19999;-66
2021/11/27 12:07:31;;;;;;;;;;;;;;;;;;5083155;28;19930;-68
2021/11/27 12:09:58;;;;;;;;;;;;;;;;;;5084083;28;19924;-67
2021/11/27 12:12:25;;;;;;;;;;;;;;;;;;5080724;28;20303;-66
2021/11/27 12:14:52;;;;;;;;;;;;;;;;;;5081949;28;20351;-66
2021/11/27 12:17:19;;;;;;;;;;;;;;;;;;5085278;28;19935;-66
2021/11/27 12:19:46;;;;;;;;;;;;;;;;;;5087589;28;19924;-67
2021/11/27 12:22:13;;;;;;;;;;;;;;;;;;5082703;28;19930;-66
2021/11/27 12:24:40;;;;;;;;;;;;;;;;;;5083011;28;19924;-66
2021/11/27 12:27:07;;;;;;;;;;;;;;;;;;5084665;28;20299;-66
2021/11/27 12:29:34;;;;;;;;;;;;;;;;;;5084184;28;19928;-66
2021/11/27 12:32:01;;;;;;;;;;;;;;;;;;5080768;28;20436;-67
2021/11/27 12:34:28;;;;;;;;;;;;;;;;;;5083417;28;19924;-66
2021/11/27 12:36:55;;;;;;;;;;;;;;;;;;5079391;28;19924;-67
2021/11/27 12:39:22;;;;;;;;;;;;;;;;;;5082318;28;20314;-65
2021/11/27 12:41:49;;;;;;;;;;;;;;;;;;5084257;28;20379;-65
2021/11/27 12:44:16;;;;;;;;;;;;;;;;;;5086083;28;19939;-66
2021/11/27 12:46:46;;;;;;;;;;;;;;;;;;5083611;28;19991;-64
2021/11/27 12:49:13;;;;;;;;;;;;;;;;;;5078929;28;20187;-64
2021/11/27 12:51:40;;;;;;;;;;;;;;;;;;5078393;28;19932;-66
2021/11/27 12:54:07;;;;;;;;;;;;;;;;;;5079020;28;19928;-65
2021/11/27 12:56:34;;;;;;;;;;;;;;;;;;5082248;28;20019;-66
2021/11/27 12:59:01;;;;;;;;;;;;;;;;;;5081778;28;19931;-66
2021/11/27 13:01:28;;;;;;;;;;;;;;;;;;5083307;28;19933;-66
2021/11/27 13:03:55;;;;;;;;;;;;;;;;;;5083437;28;20368;-65
2021/11/27 13:06:22;;;;;;;;;;;;;;;;;;5086815;28;19932;-66
2021/11/27 13:08:49;;;;;;;;;;;;;;;;;;5084698;28;19928;-65
2021/11/27 13:11:16;;;;;;;;;;;;;;;;;;5084004;28;19924;-67
2021/11/27 13:13:43;;;;;;;;;;;;;;;;;;5085132;28;19967;-66
2021/11/27 13:16:10;;;;;;;;;;;;;;;;;;5080748;28;19929;-66
2021/11/27 13:18:37;;;;;;;;;;;;;;;;;;5086309;28;20331;-66
2021/11/27 13:21:06;;;;;;;;;;;;;;;;;;5080802;28;19928;-67
2021/11/27 13:23:35;;;;;;;;;;;;;;;;;;5082231;28;20030;-67
2021/11/27 13:26:02;;;;;;;;;;;;;;;;;;5086644;28;19928;-67
2021/11/27 13:28:29;;;;;;;;;;;;;;;;;;5081998;28;19925;-67
2021/11/27 13:30:56;;;;;;;;;;;;;;;;;;5089723;28;19932;-67
2021/11/27 13:33:23;;;;;;;;;;;;;;;;;;5083599;28;19924;-67
2021/11/27 13:35:52;;;;;;;;;;;;;;;;;;5078537;28;21390;-67
2021/11/27 13:38:19;;;;;;;;;;;;;;;;;;5080498;28;19946;-67
2021/11/27 13:40:46;;;;;;;;;;;;;;;;;;5079698;28;20007;-66
2021/11/27 13:43:13;;;;;;;;;;;;;;;;;;5082968;28;19924;-67
2021/11/27 13:45:40;;;;;;;;;;;;;;;;;;5080417;28;19928;-68
2021/11/27 13:48:07;;;;;;;;;;;;;;;;;;5079244;28;20392;-65
2021/11/27 13:50:34;;;;;;;;;;;;;;;;;;5076608;28;19930;-67
2021/11/27 13:53:01;;;;;;;;;;;;;;;;;;5082760;28;20352;-67
2021/11/27 13:55:28;;;;;;;;;;;;;;;;;;5083873;28;19924;-67
2021/11/27 13:57:54;;;;;;;;;;;;;;;;;;5088362;28;19931;-66
2021/11/27 14:00:21;;;;;;;;;;;;;;;;;;5082361;28;19924;-67
2021/11/27 14:02:48;;;;;;;;;;;;;;;;;;5086648;28;19928;-66
2021/11/27 14:05:15;;;;;;;;;;;;;;;;;;5090897;28;19924;-67
2021/11/27 14:07:42;;;;;;;;;;;;;;;;;;5084639;28;19935;-67
2021/11/27 14:10:09;;;;;;;;;;;;;;;;;;5087970;28;19930;-66
2021/11/27 14:12:36;;;;;;;;;;;;;;;;;;5084415;28;20299;-67
2021/11/27 14:15:03;;;;;;;;;;;;;;;;;;5092639;28;20384;-66
2021/11/27 14:17:30;;;;;;;;;;;;;;;;;;5084775;28;19928;-67
2021/11/27 14:19:57;;;;;;;;;;;;;;;;;;5087354;28;20443;-67
2021/11/27 14:22:24;;;;;;;;;;;;;;;;;;5081334;28;19932;-68
2021/11/27 14:24:51;;;;;;;;;;;;;;;;;;5088182;28;19931;-67
2021/11/27 14:27:18;;;;;;;;;;;;;;;;;;5089819;28;19931;-67
2021/11/27 14:29:46;;;;;;;;;;;;;;;;;;5088547;28;19924;-67
2021/11/27 14:32:13;;;;;;;;;;;;;;;;;;5086810;28;20264;-66
2021/11/27 14:34:39;;;;;;;;;;;;;;;;;;5084640;28;20010;-66
2021/11/27 14:37:06;;;;;;;;;;;;;;;;;;5086290;28;19930;-67
2021/11/27 14:39:33;;;;;;;;;;;;;;;;;;5088422;28;20398;-67
2021/11/27 14:42:00;;;;;;;;;;;;;;;;;;5085795;28;19931;-69
2021/11/27 14:44:27;;;;;;;;;;;;;;;;;;5087867;28;19931;-67
2021/11/27 14:46:54;;;;;;;;;;;;;;;;;;5085110;28;20007;-68
2021/11/27 14:49:22;;;;;;;;;;;;;;;;;;5087613;28;19931;-68
2021/11/27 14:51:49;;;;;;;;;;;;;;;;;;5088042;28;19928;-66
2021/11/27 14:54:15;;;;;;;;;;;;;;;;;;5079277;28;19925;-67
2021/11/27 14:56:42;;;;;;;;;;;;;;;;;;5085676;28;20376;-66
2021/11/27 14:59:09;;;;;;;;;;;;;;;;;;5087116;28;19932;-67
2021/11/27 15:01:36;;;;;;;;;;;;;;;;;;5087262;28;19946;-67
2021/11/27 15:04:03;;;;;;;;;;;;;;;;;;5082172;28;19924;-67
2021/11/27 15:06:30;;;;;;;;;;;;;;;;;;5082939;28;19928;-68
2021/11/27 15:08:57;;;;;;;;;;;;;;;;;;5085690;28;20291;-67
2021/11/27 15:11:24;;;;;;;;;;;;;;;;;;5089617;28;19946;-66
2021/11/27 15:13:51;;;;;;;;;;;;;;;;;;5089135;28;20000;-66
2021/11/27 15:16:18;;;;;;;;;;;;;;;;;;5092338;28;19924;-66
2021/11/27 15:18:46;;;;;;;;;;;;;;;;;;5082373;28;19924;-66
2021/11/27 15:21:13;;;;;;;;;;;;;;;;;;5086247;28;19955;-65
2021/11/27 15:23:40;;;;;;;;;;;;;;;;;;5083119;28;19924;-67
2021/11/27 15:26:07;;;;;;;;;;;;;;;;;;5089081;28;20297;-66
2021/11/27 15:28:34;;;;;;;;;;;;;;;;;;5081783;28;19924;-66
2021/11/27 15:31:01;;;;;;;;;;;;;;;;;;5088937;28;19930;-67
2021/11/27 15:33:30;;;;;;;;;;;;;;;;;;5087175;28;20015;-66
2021/11/27 15:35:57;;;;;;;;;;;;;;;;;;5089024;28;19924;-66
2021/11/27 15:38:27;;;;;;;;;;;;;;;;;;5081854;28;19925;-65
2021/11/27 15:40:54;;;;;;;;;;;;;;;;;;5090189;28;19979;-66
2021/11/27 15:43:21;;;;;;;;;;;;;;;;;;5087711;28;19932;-66
2021/11/27 15:45:47;;;;;;;;;;;;;;;;;;5080963;28;19924;-67
2021/11/27 15:48:14;;;;;;;;;;;;;;;;;;5089037;28;19967;-68
2021/11/27 15:50:41;;;;;;;;;;;;;;;;;;5083858;28;19928;-65
2021/11/27 15:53:08;;;;;;;;;;;;;;;;;;5084214;28;19959;-67
2021/11/27 15:55:38;;;;;;;;;;;;;;;;;;5083168;28;19925;-65
2021/11/27 15:58:05;;;;;;;;;;;;;;;;;;5083723;28;20015;-67
2021/11/27 16:00:32;;;;;;;;;;;;;;;;;;5086139;28;19934;-66
2021/11/27 16:02:59;;;;;;;;;;;;;;;;;;5086194;28;19932;-67
2021/11/27 16:05:26;;;;;;;;;;;;;;;;;;5083145;28;19924;-67
2021/11/27 16:07:53;;;;;;;;;;;;;;;;;;5089712;28;19931;-67
2021/11/27 16:10:20;;;;;;;;;;;;;;;;;;5087057;28;20003;-66
2021/11/27 16:12:47;;;;;;;;;;;;;;;;;;5085727;28;19928;-67
2021/11/27 16:15:14;;;;;;;;;;;;;;;;;;5088700;28;19924;-66
2021/11/27 16:17:42;;;;;;;;;;;;;;;;;;5089964;28;20315;-66
2021/11/27 16:20:09;;;;;;;;;;;;;;;;;;5077771;28;19924;-66
2021/11/27 16:22:36;;;;;;;;;;;;;;;;;;5085866;28;19940;-67
2021/11/27 16:25:03;;;;;;;;;;;;;;;;;;5085020;28;19924;-68
2021/11/27 16:27:30;;;;;;;;;;;;;;;;;;5086184;28;20019;-66
2021/11/27 16:29:57;;;;;;;;;;;;;;;;;;5083654;28;19923;-66
2021/11/27 16:32:24;;;;;;;;;;;;;;;;;;5078837;28;19932;-66
2021/11/27 16:34:51;;;;;;;;;;;;;;;;;;5080429;28;19924;-66
2021/11/27 16:37:18;;;;;;;;;;;;;;;;;;5083181;28;19924;-67
2021/11/27 16:39:45;;;;;;;;;;;;;;;;;;5081245;28;19943;-66
2021/11/27 16:42:15;;;;;;;;;;;;;;;;;;5081381;28;20026;-65
2021/11/27 16:44:42;;;;;;;;;;;;;;;;;;5066424;28;19989;-66